sensor_id;sensor_type;location;lat;lon;timestamp;pressure;altitude;pressure_sealevel;temperature;humidity
11525;BME280;5819;49.648;8.330;2022-09-13T00:00:01;99931.25;;;15.33;90.17
11525;BME280;5819;49.648;8.330;2022-09-13T00:02:30;99921.19;;;15.27;92.39
11525;BME280;5819;49.648;8.330;2022-09-13T00:04:59;99922.44;;;15.22;92.16
11525;BME280;5819;49.648;8.330;2022-09-13T00:07:27;99921.19;;;15.15;94.09
11525;BME280;5819;49.648;8.330;2022-09-13T00:09:54;99918.88;;;15.10;94.15
11525;BME280;5819;49.648;8.330;2022-09-13T00:12:24;99929.13;;;15.00;96.44
11525;BME280;5819;49.648;8.330;2022-09-13T00:14:52;99931.47;;;15.18;96.22
11525;BME280;5819;49.648;8.330;2022-09-13T00:17:20;99923.28;;;15.22;97.38
11525;BME280;5819;49.648;8.330;2022-09-13T00:19:48;99918.69;;;15.38;96.35
11525;BME280;5819;49.648;8.330;2022-09-13T00:22:16;99917.31;;;15.33;96.31
11525;BME280;5819;49.648;8.330;2022-09-13T00:24:44;99913.66;;;15.23;98.73
11525;BME280;5819;49.648;8.330;2022-09-13T00:27:12;99917.72;;;15.14;100.00
11525;BME280;5819;49.648;8.330;2022-09-13T00:29:41;99911.97;;;15.47;98.62
11525;BME280;5819;49.648;8.330;2022-09-13T00:32:09;99910.94;;;15.50;96.08
11525;BME280;5819;49.648;8.330;2022-09-13T00:34:37;99912.69;;;15.49;97.02
11525;BME280;5819;49.648;8.330;2022-09-13T00:37:05;99905.38;;;15.54;96.80
11525;BME280;5819;49.648;8.330;2022-09-13T00:39:34;99908.00;;;15.54;95.50
11525;BME280;5819;49.648;8.330;2022-09-13T00:42:03;99909.88;;;15.39;95.92
11525;BME280;5819;49.648;8.330;2022-09-13T00:44:55;99915.53;;;15.46;95.78
11525;BME280;5819;49.648;8.330;2022-09-13T00:47:26;99911.56;;;15.53;95.99
11525;BME280;5819;49.648;8.330;2022-09-13T00:49:59;99914.91;;;15.55;95.81
11525;BME280;5819;49.648;8.330;2022-09-13T00:52:30;99921.69;;;15.45;97.62
11525;BME280;5819;49.648;8.330;2022-09-13T00:55:02;99923.09;;;15.51;97.22
11525;BME280;5819;49.648;8.330;2022-09-13T00:57:33;99913.38;;;15.53;97.13
11525;BME280;5819;49.648;8.330;2022-09-13T01:00:07;99912.06;;;15.58;96.53
11525;BME280;5819;49.648;8.330;2022-09-13T01:02:41;99904.09;;;15.47;96.12
11525;BME280;5819;49.648;8.330;2022-09-13T01:05:13;99896.25;;;15.34;96.32
11525;BME280;5819;49.648;8.330;2022-09-13T01:07:42;99897.31;;;15.32;97.79
11525;BME280;5819;49.648;8.330;2022-09-13T01:10:10;99894.47;;;15.35;98.73
11525;BME280;5819;49.648;8.330;2022-09-13T01:12:41;99906.19;;;15.42;99.62
11525;BME280;5819;49.648;8.330;2022-09-13T01:15:13;99901.56;;;15.45;100.00
11525;BME280;5819;49.648;8.330;2022-09-13T01:17:42;99903.16;;;15.35;100.00
11525;BME280;5819;49.648;8.330;2022-09-13T01:20:11;99915.34;;;15.36;100.00
11525;BME280;5819;49.648;8.330;2022-09-13T01:23:17;99914.38;;;15.37;100.00
11525;BME280;5819;49.648;8.330;2022-09-13T01:26:26;99914.38;;;15.37;100.00
11525;BME280;5819;49.648;8.330;2022-09-13T01:29:26;99913.25;;;15.54;99.81
11525;BME280;5819;49.648;8.330;2022-09-13T01:32:05;99917.91;;;15.49;99.84
11525;BME280;5819;49.648;8.330;2022-09-13T01:34:45;99916.06;;;15.38;100.00
11525;BME280;5819;49.648;8.330;2022-09-13T01:40:15;99910.41;;;15.32;100.00
11525;BME280;5819;49.648;8.330;2022-09-13T01:43:03;99908.00;;;15.16;100.00
11525;BME280;5819;49.648;8.330;2022-09-13T01:45:39;99905.06;;;14.95;100.00
11525;BME280;5819;49.648;8.330;2022-09-13T01:48:17;99894.28;;;15.00;100.00
11525;BME280;5819;49.648;8.330;2022-09-13T01:50:56;99890.28;;;14.94;100.00
11525;BME280;5819;49.648;8.330;2022-09-13T01:53:32;99896.00;;;14.74;100.00
11525;BME280;5819;49.648;8.330;2022-09-13T01:56:04;99900.59;;;14.58;100.00
11525;BME280;5819;49.648;8.330;2022-09-13T01:58:39;99912.38;;;14.38;100.00
11525;BME280;5819;49.648;8.330;2022-09-13T02:01:12;99920.59;;;14.59;100.00
11525;BME280;5819;49.648;8.330;2022-09-13T02:03:50;99917.72;;;14.76;100.00
11525;BME280;5819;49.648;8.330;2022-09-13T02:06:23;99912.91;;;14.83;100.00
11525;BME280;5819;49.648;8.330;2022-09-13T02:08:55;99934.22;;;14.77;100.00
11525;BME280;5819;49.648;8.330;2022-09-13T02:11:24;99945.00;;;14.60;100.00
11525;BME280;5819;49.648;8.330;2022-09-13T02:13:56;99950.66;;;14.66;100.00
11525;BME280;5819;49.648;8.330;2022-09-13T02:16:35;99933.50;;;14.75;100.00
11525;BME280;5819;49.648;8.330;2022-09-13T02:19:10;99927.00;;;14.68;100.00
11525;BME280;5819;49.648;8.330;2022-09-13T02:21:43;99935.03;;;14.52;98.73
11525;BME280;5819;49.648;8.330;2022-09-13T02:24:16;99934.53;;;14.19;99.68
11525;BME280;5819;49.648;8.330;2022-09-13T02:26:45;99938.16;;;14.03;100.00
11525;BME280;5819;49.648;8.330;2022-09-13T02:29:18;99935.69;;;14.15;100.00
11525;BME280;5819;49.648;8.330;2022-09-13T02:31:51;99940.69;;;14.32;100.00
11525;BME280;5819;49.648;8.330;2022-09-13T02:34:26;99940.09;;;14.41;100.00
11525;BME280;5819;49.648;8.330;2022-09-13T02:36:59;99935.22;;;14.49;100.00
11525;BME280;5819;49.648;8.330;2022-09-13T02:39:30;99932.22;;;14.55;100.00
11525;BME280;5819;49.648;8.330;2022-09-13T02:42:03;99934.81;;;14.55;100.00
11525;BME280;5819;49.648;8.330;2022-09-13T02:44:40;99944.88;;;14.61;100.00
11525;BME280;5819;49.648;8.330;2022-09-13T02:47:18;99932.41;;;14.65;100.00
11525;BME280;5819;49.648;8.330;2022-09-13T02:49:57;99927.63;;;14.71;100.00
11525;BME280;5819;49.648;8.330;2022-09-13T02:52:37;99928.56;;;14.70;100.00
11525;BME280;5819;49.648;8.330;2022-09-13T02:55:16;99924.22;;;14.57;100.00
11525;BME280;5819;49.648;8.330;2022-09-13T02:57:53;99923.59;;;14.53;100.00
11525;BME280;5819;49.648;8.330;2022-09-13T03:00:22;99935.66;;;14.56;100.00
11525;BME280;5819;49.648;8.330;2022-09-13T03:02:51;99936.25;;;14.46;100.00
11525;BME280;5819;49.648;8.330;2022-09-13T03:05:22;99926.63;;;14.47;100.00
11525;BME280;5819;49.648;8.330;2022-09-13T03:07:51;99911.91;;;14.59;100.00
11525;BME280;5819;49.648;8.330;2022-09-13T03:10:20;99899.53;;;14.61;100.00
11525;BME280;5819;49.648;8.330;2022-09-13T03:13:09;99894.09;;;14.51;100.00
11525;BME280;5819;49.648;8.330;2022-09-13T03:15:51;99892.34;;;14.37;100.00
11525;BME280;5819;49.648;8.330;2022-09-13T03:18:32;99885.63;;;14.33;100.00
11525;BME280;5819;49.648;8.330;2022-09-13T03:21:11;99896.78;;;14.49;100.00
11525;BME280;5819;49.648;8.330;2022-09-13T03:23:50;99893.47;;;14.60;100.00
11525;BME280;5819;49.648;8.330;2022-09-13T03:26:30;99896.53;;;14.67;100.00
11525;BME280;5819;49.648;8.330;2022-09-13T03:29:23;99902.63;;;14.80;100.00
11525;BME280;5819;49.648;8.330;2022-09-13T03:32:01;99895.41;;;14.96;100.00
11525;BME280;5819;49.648;8.330;2022-09-13T03:34:38;99899.91;;;14.94;100.00
11525;BME280;5819;49.648;8.330;2022-09-13T03:37:16;99897.69;;;15.00;100.00
11525;BME280;5819;49.648;8.330;2022-09-13T03:39:53;99890.28;;;14.94;100.00
11525;BME280;5819;49.648;8.330;2022-09-13T03:42:27;99889.44;;;14.94;100.00
11525;BME280;5819;49.648;8.330;2022-09-13T03:44:59;99894.13;;;14.89;100.00
11525;BME280;5819;49.648;8.330;2022-09-13T03:47:31;99890.03;;;14.85;100.00
11525;BME280;5819;49.648;8.330;2022-09-13T03:50:03;99891.53;;;14.76;100.00
11525;BME280;5819;49.648;8.330;2022-09-13T03:52:34;99887.44;;;14.72;100.00
11525;BME280;5819;49.648;8.330;2022-09-13T03:55:02;99878.59;;;14.61;100.00
11525;BME280;5819;49.648;8.330;2022-09-13T03:57:30;99882.25;;;14.58;100.00
11525;BME280;5819;49.648;8.330;2022-09-13T03:59:58;99872.94;;;14.54;100.00
11525;BME280;5819;49.648;8.330;2022-09-13T04:02:27;99873.78;;;14.55;100.00
11525;BME280;5819;49.648;8.330;2022-09-13T04:04:55;99874.19;;;14.61;100.00
11525;BME280;5819;49.648;8.330;2022-09-13T04:07:23;99876.06;;;14.46;100.00
11525;BME280;5819;49.648;8.330;2022-09-13T04:09:53;99879.97;;;14.27;100.00
11525;BME280;5819;49.648;8.330;2022-09-13T04:12:21;99869.50;;;14.27;100.00
11525;BME280;5819;49.648;8.330;2022-09-13T04:14:49;99873.59;;;14.31;100.00
11525;BME280;5819;49.648;8.330;2022-09-13T04:17:18;99874.88;;;14.38;100.00
11525;BME280;5819;49.648;8.330;2022-09-13T04:19:46;99869.91;;;14.47;100.00
11525;BME280;5819;49.648;8.330;2022-09-13T04:22:14;99865.72;;;14.58;100.00
11525;BME280;5819;49.648;8.330;2022-09-13T04:24:42;99870.44;;;14.65;100.00
11525;BME280;5819;49.648;8.330;2022-09-13T04:27:12;99874.41;;;14.58;100.00
11525;BME280;5819;49.648;8.330;2022-09-13T04:29:40;99875.00;;;14.49;100.00
11525;BME280;5819;49.648;8.330;2022-09-13T04:32:07;99874.69;;;14.41;100.00
11525;BME280;5819;49.648;8.330;2022-09-13T04:34:36;99865.91;;;14.42;100.00
11525;BME280;5819;49.648;8.330;2022-09-13T04:37:04;99867.66;;;14.41;100.00
11525;BME280;5819;49.648;8.330;2022-09-13T04:39:32;99868.31;;;14.45;100.00
11525;BME280;5819;49.648;8.330;2022-09-13T04:42:00;99869.78;;;14.22;100.00
11525;BME280;5819;49.648;8.330;2022-09-13T04:44:30;99874.03;;;14.11;100.00
11525;BME280;5819;49.648;8.330;2022-09-13T04:46:58;99881.03;;;14.10;100.00
11525;BME280;5819;49.648;8.330;2022-09-13T04:49:26;99880.19;;;14.10;100.00
11525;BME280;5819;49.648;8.330;2022-09-13T04:51:54;99887.41;;;14.06;100.00
11525;BME280;5819;49.648;8.330;2022-09-13T04:54:22;99891.06;;;14.03;100.00
11525;BME280;5819;49.648;8.330;2022-09-13T04:56:50;99897.13;;;14.04;100.00
11525;BME280;5819;49.648;8.330;2022-09-13T04:59:19;99898.50;;;14.10;100.00
11525;BME280;5819;49.648;8.330;2022-09-13T05:01:49;99898.75;;;14.19;100.00
11525;BME280;5819;49.648;8.330;2022-09-13T05:04:17;99893.88;;;14.27;100.00
11525;BME280;5819;49.648;8.330;2022-09-13T05:06:45;99903.38;;;14.28;100.00
11525;BME280;5819;49.648;8.330;2022-09-13T05:09:14;99907.59;;;14.31;100.00
11525;BME280;5819;49.648;8.330;2022-09-13T05:11:42;99911.53;;;14.38;100.00
11525;BME280;5819;49.648;8.330;2022-09-13T05:14:11;99915.63;;;14.42;100.00
11525;BME280;5819;49.648;8.330;2022-09-13T05:16:38;99911.88;;;14.46;100.00
11525;BME280;5819;49.648;8.330;2022-09-13T05:19:09;99908.84;;;14.52;100.00
11525;BME280;5819;49.648;8.330;2022-09-13T05:21:38;99911.34;;;14.53;100.00
11525;BME280;5819;49.648;8.330;2022-09-13T05:24:06;99912.28;;;14.52;100.00
11525;BME280;5819;49.648;8.330;2022-09-13T05:26:35;99926.50;;;14.48;100.00
11525;BME280;5819;49.648;8.330;2022-09-13T05:29:03;99922.63;;;14.41;100.00
11525;BME280;5819;49.648;8.330;2022-09-13T05:31:32;99928.19;;;14.49;100.00
11525;BME280;5819;49.648;8.330;2022-09-13T05:34:03;99921.44;;;14.60;100.00
11525;BME280;5819;49.648;8.330;2022-09-13T05:36:33;99905.44;;;14.64;100.00
11525;BME280;5819;49.648;8.330;2022-09-13T05:39:02;99900.72;;;14.69;100.00
11525;BME280;5819;49.648;8.330;2022-09-13T05:41:50;99904.72;;;14.75;100.00
11525;BME280;5819;49.648;8.330;2022-09-13T05:44:18;99905.56;;;14.75;100.00
11525;BME280;5819;49.648;8.330;2022-09-13T05:46:46;99921.47;;;14.72;100.00
11525;BME280;5819;49.648;8.330;2022-09-13T05:49:14;99923.88;;;14.75;100.00
11525;BME280;5819;49.648;8.330;2022-09-13T05:51:44;99927.84;;;14.81;100.00
11525;BME280;5819;49.648;8.330;2022-09-13T05:54:12;99914.66;;;14.82;100.00
11525;BME280;5819;49.648;8.330;2022-09-13T05:56:40;99913.00;;;14.94;100.00
11525;BME280;5819;49.648;8.330;2022-09-13T05:59:10;99919.50;;;15.01;100.00
11525;BME280;5819;49.648;8.330;2022-09-13T06:01:39;99916.25;;;15.10;100.00
11525;BME280;5819;49.648;8.330;2022-09-13T06:04:07;99911.03;;;15.23;100.00
11525;BME280;5819;49.648;8.330;2022-09-13T06:06:35;99912.91;;;15.33;100.00
11525;BME280;5819;49.648;8.330;2022-09-13T06:09:04;99912.28;;;15.42;100.00
11525;BME280;5819;49.648;8.330;2022-09-13T06:11:34;99909.66;;;15.42;100.00
11525;BME280;5819;49.648;8.330;2022-09-13T06:14:02;99920.75;;;15.46;100.00
11525;BME280;5819;49.648;8.330;2022-09-13T06:16:30;99917.09;;;15.49;100.00
11525;BME280;5819;49.648;8.330;2022-09-13T06:18:58;99916.78;;;15.53;100.00
11525;BME280;5819;49.648;8.330;2022-09-13T06:21:26;99914.78;;;15.57;100.00
11525;BME280;5819;49.648;8.330;2022-09-13T06:23:55;99916.47;;;15.58;100.00
11525;BME280;5819;49.648;8.330;2022-09-13T06:26:26;99905.91;;;15.59;100.00
11525;BME280;5819;49.648;8.330;2022-09-13T06:28:55;99917.00;;;15.63;100.00
11525;BME280;5819;49.648;8.330;2022-09-13T06:31:25;99914.06;;;15.67;100.00
11525;BME280;5819;49.648;8.330;2022-09-13T06:33:55;99903.13;;;15.73;100.00
11525;BME280;5819;49.648;8.330;2022-09-13T06:36:24;99901.25;;;15.75;100.00
11525;BME280;5819;49.648;8.330;2022-09-13T06:38:52;99903.97;;;15.74;100.00
11525;BME280;5819;49.648;8.330;2022-09-13T06:41:21;99901.13;;;15.77;100.00
11525;BME280;5819;49.648;8.330;2022-09-13T06:43:54;99908.56;;;15.83;100.00
11525;BME280;5819;49.648;8.330;2022-09-13T06:46:23;99911.25;;;15.94;100.00
11525;BME280;5819;49.648;8.330;2022-09-13T06:48:52;99915.34;;;15.98;100.00
11525;BME280;5819;49.648;8.330;2022-09-13T06:51:23;99913.22;;;16.03;100.00
11525;BME280;5819;49.648;8.330;2022-09-13T06:53:52;99912.91;;;16.08;100.00
11525;BME280;5819;49.648;8.330;2022-09-13T06:56:23;99916.97;;;16.12;100.00
11525;BME280;5819;49.648;8.330;2022-09-13T06:58:56;99922.34;;;16.10;100.00
11525;BME280;5819;49.648;8.330;2022-09-13T07:01:25;99917.28;;;16.20;100.00
11525;BME280;5819;49.648;8.330;2022-09-13T07:03:57;99925.00;;;16.21;100.00
11525;BME280;5819;49.648;8.330;2022-09-13T07:06:27;99935.19;;;16.26;100.00
11525;BME280;5819;49.648;8.330;2022-09-13T07:08:57;99947.06;;;16.19;100.00
11525;BME280;5819;49.648;8.330;2022-09-13T07:11:29;99938.25;;;16.20;100.00
11525;BME280;5819;49.648;8.330;2022-09-13T07:13:59;99935.19;;;16.26;100.00
11525;BME280;5819;49.648;8.330;2022-09-13T07:16:29;99943.66;;;16.29;100.00
11525;BME280;5819;49.648;8.330;2022-09-13T07:18:59;99940.63;;;16.35;100.00
11525;BME280;5819;49.648;8.330;2022-09-13T07:21:28;99938.09;;;16.34;100.00
11525;BME280;5819;49.648;8.330;2022-09-13T07:23:56;99947.88;;;16.32;100.00
11525;BME280;5819;49.648;8.330;2022-09-13T07:26:25;99940.38;;;16.38;100.00
11525;BME280;5819;49.648;8.330;2022-09-13T07:28:55;99934.06;;;16.41;100.00
11525;BME280;5819;49.648;8.330;2022-09-13T07:31:26;99936.03;;;16.50;100.00
11525;BME280;5819;49.648;8.330;2022-09-13T07:33:56;99943.78;;;16.52;100.00
11525;BME280;5819;49.648;8.330;2022-09-13T07:36:25;99934.66;;;16.57;100.00
11525;BME280;5819;49.648;8.330;2022-09-13T07:38:53;99929.91;;;16.62;100.00
11525;BME280;5819;49.648;8.330;2022-09-13T07:41:23;99927.53;;;16.70;100.00
11525;BME280;5819;49.648;8.330;2022-09-13T07:43:53;99918.47;;;16.74;100.00
11525;BME280;5819;49.648;8.330;2022-09-13T07:46:22;99921.25;;;16.73;100.00
11525;BME280;5819;49.648;8.330;2022-09-13T07:48:53;99907.09;;;16.63;100.00
11525;BME280;5819;49.648;8.330;2022-09-13T07:51:24;99905.75;;;16.57;100.00
11525;BME280;5819;49.648;8.330;2022-09-13T07:53:56;99910.06;;;16.58;100.00
11525;BME280;5819;49.648;8.330;2022-09-13T07:56:26;99920.03;;;16.53;100.00
11525;BME280;5819;49.648;8.330;2022-09-13T07:58:55;99917.50;;;16.64;100.00
11525;BME280;5819;49.648;8.330;2022-09-13T08:01:24;99928.88;;;16.76;100.00
11525;BME280;5819;49.648;8.330;2022-09-13T08:03:56;99919.59;;;16.94;100.00
11525;BME280;5819;49.648;8.330;2022-09-13T08:06:26;99914.00;;;16.99;100.00
11525;BME280;5819;49.648;8.330;2022-09-13T08:08:55;99923.22;;;17.04;100.00
11525;BME280;5819;49.648;8.330;2022-09-13T08:11:26;99914.63;;;17.13;98.93
11525;BME280;5819;49.648;8.330;2022-09-13T08:13:55;99906.78;;;17.24;99.59
11525;BME280;5819;49.648;8.330;2022-09-13T08:16:25;99898.78;;;17.37;99.79
11525;BME280;5819;49.648;8.330;2022-09-13T08:18:55;99901.16;;;17.40;98.13
11525;BME280;5819;49.648;8.330;2022-09-13T08:21:24;99883.81;;;17.38;96.62
11525;BME280;5819;49.648;8.330;2022-09-13T08:23:54;99877.25;;;17.54;95.72
11525;BME280;5819;49.648;8.330;2022-09-13T08:26:26;99878.81;;;17.57;95.56
11525;BME280;5819;49.648;8.330;2022-09-13T08:28:58;99889.59;;;17.65;95.17
11525;BME280;5819;49.648;8.330;2022-09-13T08:31:27;99893.88;;;17.66;95.84
11525;BME280;5819;49.648;8.330;2022-09-13T08:33:57;99905.38;;;17.76;94.00
11525;BME280;5819;49.648;8.330;2022-09-13T08:36:27;99910.00;;;17.95;93.59
11525;BME280;5819;49.648;8.330;2022-09-13T08:38:57;99922.31;;;18.05;92.14
11525;BME280;5819;49.648;8.330;2022-09-13T08:41:49;99924.09;;;18.05;91.38
11525;BME280;5819;49.648;8.330;2022-09-13T08:44:24;99917.13;;;18.15;92.73
11525;BME280;5819;49.648;8.330;2022-09-13T08:46:56;99920.22;;;18.20;90.92
11525;BME280;5819;49.648;8.330;2022-09-13T08:49:31;99912.25;;;18.42;92.25
11525;BME280;5819;49.648;8.330;2022-09-13T08:52:04;99909.84;;;18.61;91.02
11525;BME280;5819;49.648;8.330;2022-09-13T08:54:39;99906.94;;;18.64;88.53
11525;BME280;5819;49.648;8.330;2022-09-13T08:57:12;99909.13;;;18.80;88.72
11525;BME280;5819;49.648;8.330;2022-09-13T08:59:53;99917.44;;;18.96;86.69
11525;BME280;5819;49.648;8.330;2022-09-13T09:02:43;99917.16;;;19.20;84.87
11525;BME280;5819;49.648;8.330;2022-09-13T09:05:17;99908.69;;;19.26;84.41
11525;BME280;5819;49.648;8.330;2022-09-13T09:07:51;99899.72;;;19.29;81.30
11525;BME280;5819;49.648;8.330;2022-09-13T09:10:24;99898.63;;;18.90;82.78
11525;BME280;5819;49.648;8.330;2022-09-13T09:12:56;99897.19;;;18.97;82.89
11525;BME280;5819;49.648;8.330;2022-09-13T09:15:28;99895.59;;;19.15;83.82
11525;BME280;5819;49.648;8.330;2022-09-13T09:18:02;99886.19;;;19.22;82.56
11525;BME280;5819;49.648;8.330;2022-09-13T09:20:38;99876.94;;;19.28;82.53
11525;BME280;5819;49.648;8.330;2022-09-13T09:23:15;99883.22;;;19.36;82.06
11525;BME280;5819;49.648;8.330;2022-09-13T09:25:49;99893.50;;;19.39;81.69
11525;BME280;5819;49.648;8.330;2022-09-13T09:28:18;99892.81;;;19.37;82.29
11525;BME280;5819;49.648;8.330;2022-09-13T09:30:53;99905.69;;;19.31;82.21
11525;BME280;5819;49.648;8.330;2022-09-13T09:33:37;99908.38;;;19.40;83.84
11525;BME280;5819;49.648;8.330;2022-09-13T09:36:17;99908.88;;;19.55;80.75
11525;BME280;5819;49.648;8.330;2022-09-13T09:38:47;99906.38;;;19.53;80.14
11525;BME280;5819;49.648;8.330;2022-09-13T09:41:24;99901.97;;;19.63;79.87
11525;BME280;5819;49.648;8.330;2022-09-13T09:43:57;99901.41;;;19.60;78.78
11525;BME280;5819;49.648;8.330;2022-09-13T09:46:29;99903.09;;;19.71;80.21
11525;BME280;5819;49.648;8.330;2022-09-13T09:49:06;99904.94;;;19.80;79.86
11525;BME280;5819;49.648;8.330;2022-09-13T09:52:00;99905.41;;;20.04;79.71
11525;BME280;5819;49.648;8.330;2022-09-13T09:54:28;99896.28;;;20.18;77.80
11525;BME280;5819;49.648;8.330;2022-09-13T09:56:58;99897.56;;;20.33;77.56
11525;BME280;5819;49.648;8.330;2022-09-13T09:59:27;99896.19;;;20.58;76.01
11525;BME280;5819;49.648;8.330;2022-09-13T10:01:57;99893.09;;;20.72;74.77
11525;BME280;5819;49.648;8.330;2022-09-13T10:04:27;99888.50;;;20.93;74.47
11525;BME280;5819;49.648;8.330;2022-09-13T10:07:22;99878.72;;;21.03;73.29
11525;BME280;5819;49.648;8.330;2022-09-13T10:09:57;99874.53;;;21.10;73.87
11525;BME280;5819;49.648;8.330;2022-09-13T10:12:26;99876.53;;;20.89;74.61
11525;BME280;5819;49.648;8.330;2022-09-13T10:15:04;99886.00;;;20.72;73.60
11525;BME280;5819;49.648;8.330;2022-09-13T10:17:32;99887.69;;;20.73;74.04
11525;BME280;5819;49.648;8.330;2022-09-13T10:20:02;99891.44;;;20.90;74.74
11525;BME280;5819;49.648;8.330;2022-09-13T10:22:32;99891.44;;;20.90;73.22
11525;BME280;5819;49.648;8.330;2022-09-13T10:25:13;99906.03;;;20.94;72.90
11525;BME280;5819;49.648;8.330;2022-09-13T10:27:48;99910.06;;;20.88;72.50
11525;BME280;5819;49.648;8.330;2022-09-13T10:30:30;99909.94;;;20.80;72.89
11525;BME280;5819;49.648;8.330;2022-09-13T10:33:00;99913.69;;;20.97;73.35
11525;BME280;5819;49.648;8.330;2022-09-13T10:35:29;99924.38;;;21.05;74.51
11525;BME280;5819;49.648;8.330;2022-09-13T10:37:58;99928.72;;;21.06;73.47
11525;BME280;5819;49.648;8.330;2022-09-13T10:40:28;99931.66;;;20.93;73.36
11525;BME280;5819;49.648;8.330;2022-09-13T10:43:02;99928.31;;;20.82;73.33
11525;BME280;5819;49.648;8.330;2022-09-13T10:45:33;99928.44;;;20.71;75.21
11525;BME280;5819;49.648;8.330;2022-09-13T10:48:04;99922.47;;;20.59;75.08
11525;BME280;5819;49.648;8.330;2022-09-13T10:50:37;99921.94;;;20.46;75.26
11525;BME280;5819;49.648;8.330;2022-09-13T10:53:29;99919.13;;;20.38;75.11
11525;BME280;5819;49.648;8.330;2022-09-13T10:55:58;99932.63;;;20.44;78.74
11525;BME280;5819;49.648;8.330;2022-09-13T10:58:26;99931.50;;;20.47;74.90
11525;BME280;5819;49.648;8.330;2022-09-13T11:01:32;99927.88;;;20.38;76.65
11525;BME280;5819;49.648;8.330;2022-09-13T11:04:36;99927.00;;;20.28;76.96
11525;BME280;5819;49.648;8.330;2022-09-13T11:07:22;99907.41;;;20.21;78.45
11525;BME280;5819;49.648;8.330;2022-09-13T11:09:59;99894.88;;;20.14;79.00
11525;BME280;5819;49.648;8.330;2022-09-13T11:12:36;99895.13;;;20.10;81.07
11525;BME280;5819;49.648;8.330;2022-09-13T11:15:16;99890.53;;;20.03;82.85
11525;BME280;5819;49.648;8.330;2022-09-13T11:18:09;99884.13;;;19.96;86.14
11525;BME280;5819;49.648;8.330;2022-09-13T11:20:44;99885.22;;;19.84;85.96
11525;BME280;5819;49.648;8.330;2022-09-13T11:23:38;99878.94;;;19.75;84.57
11525;BME280;5819;49.648;8.330;2022-09-13T11:26:29;99871.97;;;19.74;87.31
11525;BME280;5819;49.648;8.330;2022-09-13T11:29:12;99870.59;;;19.70;88.06
11525;BME280;5819;49.648;8.330;2022-09-13T11:31:51;99864.63;;;19.68;88.06
11525;BME280;5819;49.648;8.330;2022-09-13T11:34:35;99857.25;;;19.72;89.58
11525;BME280;5819;49.648;8.330;2022-09-13T11:37:18;99857.81;;;19.75;90.86
11525;BME280;5819;49.648;8.330;2022-09-13T11:39:58;99846.75;;;19.81;92.25
11525;BME280;5819;49.648;8.330;2022-09-13T11:42:42;99844.78;;;19.83;91.49
11525;BME280;5819;49.648;8.330;2022-09-13T11:45:19;99846.19;;;19.87;91.58
11525;BME280;5819;49.648;8.330;2022-09-13T11:47:58;99843.53;;;19.87;92.83
11525;BME280;5819;49.648;8.330;2022-09-13T11:50:34;99838.25;;;19.87;90.77
11525;BME280;5819;49.648;8.330;2022-09-13T11:53:23;99837.19;;;19.90;90.91
11525;BME280;5819;49.648;8.330;2022-09-13T11:55:59;99841.34;;;19.92;88.88
11525;BME280;5819;49.648;8.330;2022-09-13T11:58:33;99840.94;;;19.97;90.44
11525;BME280;5819;49.648;8.330;2022-09-13T12:01:06;99845.34;;;20.06;92.45
11525;BME280;5819;49.648;8.330;2022-09-13T12:03:39;99840.50;;;20.11;90.64
11525;BME280;5819;49.648;8.330;2022-09-13T12:06:11;99828.56;;;20.17;89.10
11525;BME280;5819;49.648;8.330;2022-09-13T12:08:45;99824.97;;;20.18;91.53
11525;BME280;5819;49.648;8.330;2022-09-13T12:11:18;99821.06;;;20.12;89.77
11525;BME280;5819;49.648;8.330;2022-09-13T12:13:52;99815.06;;;20.10;90.13
11525;BME280;5819;49.648;8.330;2022-09-13T12:16:25;99813.81;;;20.14;90.52
11525;BME280;5819;49.648;8.330;2022-09-13T12:19:03;99813.00;;;20.23;89.63
11525;BME280;5819;49.648;8.330;2022-09-13T12:21:36;99815.50;;;20.34;88.38
11525;BME280;5819;49.648;8.330;2022-09-13T12:24:12;99817.31;;;20.43;86.73
11525;BME280;5819;49.648;8.330;2022-09-13T12:26:45;99799.63;;;20.63;88.22
11525;BME280;5819;49.648;8.330;2022-09-13T12:29:21;99800.75;;;20.70;86.79
11525;BME280;5819;49.648;8.330;2022-09-13T12:31:55;99794.63;;;20.70;85.43
11525;BME280;5819;49.648;8.330;2022-09-13T12:34:32;99795.16;;;20.73;84.74
11525;BME280;5819;49.648;8.330;2022-09-13T12:40:31;99786.88;;;20.95;82.61
11525;BME280;5819;49.648;8.330;2022-09-13T12:43:23;99788.34;;;21.08;82.26
11525;BME280;5819;49.648;8.330;2022-09-13T12:46:26;99793.25;;;21.12;80.90
11525;BME280;5819;49.648;8.330;2022-09-13T12:52:26;99785.72;;;21.17;79.56
11525;BME280;5819;49.648;8.330;2022-09-13T12:55:25;99782.63;;;21.22;79.54
11525;BME280;5819;49.648;8.330;2022-09-13T12:58:28;99780.75;;;21.32;80.78
11525;BME280;5819;49.648;8.330;2022-09-13T13:01:07;99781.28;;;21.35;78.18
11525;BME280;5819;49.648;8.330;2022-09-13T13:03:46;99785.56;;;21.46;78.76
11525;BME280;5819;49.648;8.330;2022-09-13T13:06:24;99791.03;;;21.62;76.91
11525;BME280;5819;49.648;8.330;2022-09-13T13:08:57;99785.81;;;21.88;77.05
11525;BME280;5819;49.648;8.330;2022-09-13T13:11:27;99786.22;;;22.11;75.40
11525;BME280;5819;49.648;8.330;2022-09-13T13:13:58;99784.41;;;22.29;75.15
11525;BME280;5819;49.648;8.330;2022-09-13T13:16:30;99784.00;;;22.42;75.34
11525;BME280;5819;49.648;8.330;2022-09-13T13:19:02;99768.63;;;22.45;73.31
11525;BME280;5819;49.648;8.330;2022-09-13T13:21:36;99772.19;;;22.54;72.78
11525;BME280;5819;49.648;8.330;2022-09-13T13:24:37;99774.94;;;22.96;72.02
11525;BME280;5819;49.648;8.330;2022-09-13T13:27:40;99760.88;;;23.03;71.31
11525;BME280;5819;49.648;8.330;2022-09-13T13:30:39;99755.44;;;23.13;70.34
11525;BME280;5819;49.648;8.330;2022-09-13T13:33:14;99755.56;;;23.03;70.97
11525;BME280;5819;49.648;8.330;2022-09-13T13:35:45;99752.88;;;22.95;71.60
11525;BME280;5819;49.648;8.330;2022-09-13T13:38:40;99750.69;;;22.65;71.09
11525;BME280;5819;49.648;8.330;2022-09-13T13:41:37;99748.13;;;22.55;72.19
11525;BME280;5819;49.648;8.330;2022-09-13T13:47:51;99748.88;;;22.39;71.43
11525;BME280;5819;49.648;8.330;2022-09-13T13:50:20;99742.97;;;22.28;73.48
11525;BME280;5819;49.648;8.330;2022-09-13T13:52:58;99740.78;;;22.23;73.63